Time;durP1;ratioP1;P1;durP2;ratioP2;P2;SDS_P1;SDS_P2;PMS_P1;PMS_P2;Temp;Humidity;BMP_temperature;BMP_pressure;BME280_temperature;BME280_humidity;BME280_pressure;Samples;Min_cycle;Max_cycle;Signal;HPM_P1;HPM_P2
2021/01/20 00:00:59;;;;;;;4.53;3.28;;;;;;;3.56;65.35;99586.91;10461702;28;20705;-59
2021/01/20 00:06:00;;;;;;;3.40;2.67;;;;;;;3.57;65.52;99580.72;10464891;28;20047;-59
2021/01/20 00:11:02;;;;;;;5.22;3.33;;;;;;;3.48;64.72;99568.97;10463643;28;20076;-59
2021/01/20 00:16:03;;;;;;;3.97;2.78;;;;;;;3.46;64.80;99561.19;10436995;28;20505;-59
2021/01/20 00:21:04;;;;;;;3.78;3.17;;;;;;;3.47;64.47;99568.16;10463999;28;20052;-59
2021/01/20 00:26:06;;;;;;;5.45;2.85;;;;;;;3.45;65.06;99567.41;10462907;28;20052;-58
2021/01/20 00:31:07;;;;;;;4.43;2.83;;;;;;;3.51;65.33;99553.88;10459519;28;20044;-58
2021/01/20 00:36:09;;;;;;;3.78;3.08;;;;;;;3.53;65.09;99549.34;10456925;28;20124;-58
2021/01/20 00:41:10;;;;;;;5.22;3.10;;;;;;;3.46;64.70;99534.88;10461034;28;20064;-59
2021/01/20 00:46:11;;;;;;;4.55;3.42;;;;;;;3.54;65.50;99526.50;10461989;28;20130;-58
2021/01/20 00:51:13;;;;;;;3.58;2.85;;;;;;;3.48;64.76;99518.97;10462450;28;20056;-58
2021/01/20 00:56:14;;;;;;;3.60;2.90;;;;;;;3.51;65.26;99517.03;10442370;28;20075;-58
2021/01/20 01:01:15;;;;;;;3.38;2.83;;;;;;;3.47;65.36;99518.16;10463732;28;20681;-59
2021/01/20 01:06:17;;;;;;;4.07;3.05;;;;;;;3.46;65.47;99534.03;10463987;28;20049;-59
2021/01/20 01:11:18;;;;;;;4.18;3.33;;;;;;;3.46;65.28;99515.63;10443071;28;20079;-58
2021/01/20 01:16:19;;;;;;;3.35;3.05;;;;;;;3.48;65.72;99532.16;10466864;28;20079;-58
2021/01/20 01:21:20;;;;;;;5.15;3.22;;;;;;;3.43;65.96;99514.00;10460850;28;20087;-58
2021/01/20 01:26:22;;;;;;;4.63;3.55;;;;;;;3.44;65.89;99507.81;10461486;28;20044;-58
2021/01/20 01:31:23;;;;;;;5.95;4.30;;;;;;;3.44;66.18;99489.41;10458050;28;20098;-63
2021/01/20 01:36:24;;;;;;;3.80;3.40;;;;;;;3.37;66.43;99493.34;10462063;28;20056;-58
2021/01/20 01:41:25;;;;;;;5.22;4.07;;;;;;;3.38;66.54;99478.41;10459052;28;20074;-59
2021/01/20 01:46:30;;;;;;;4.78;4.10;;;;;;;3.38;66.12;99478.41;10458352;28;20063;-59
2021/01/20 01:51:32;;;;;;;4.15;3.30;;;;;;;3.34;65.77;99467.25;10460212;28;20049;-58
2021/01/20 01:56:33;;;;;;;4.95;3.58;;;;;;;3.37;65.63;99467.03;10460817;28;20459;-58
2021/01/20 02:01:34;;;;;;;4.47;3.55;;;;;;;3.35;65.60;99466.31;10458341;28;20040;-58
2021/01/20 02:06:36;;;;;;;5.10;3.67;;;;;;;3.34;65.77;99472.50;10458252;28;20048;-58
2021/01/20 02:11:58;;;;;;;6.60;3.40;;;;;;;3.33;65.53;99470.81;10460452;28;20056;-58
2021/01/20 02:17:22;;;;;;;4.50;3.10;;;;;;;3.44;65.45;99470.13;10407505;28;20056;-58
2021/01/20 02:22:32;;;;;;;4.10;3.10;;;;;;;3.38;65.33;99463.47;10470491;22;20407;-58
2021/01/20 02:27:46;;;;;;;3.92;3.53;;;;;;;3.39;65.29;99466.94;10534186;27;20436;-58
2021/01/20 02:32:51;;;;;;;5.40;3.27;;;;;;;3.43;65.08;99455.28;10532322;27;20461;-58
2021/01/20 02:37:54;;;;;;;4.40;3.35;;;;;;;3.38;65.21;99450.31;10535180;27;20067;-58
2021/01/20 02:42:55;;;;;;;3.97;3.05;;;;;;;3.32;65.24;99454.19;10536795;27;20059;-59
2021/01/20 02:47:57;;;;;;;4.07;3.00;;;;;;;3.40;65.07;99460.75;10540220;27;20051;-58
2021/01/20 02:53:13;;;;;;;4.55;2.72;;;;;;;3.38;65.35;99452.09;10530968;27;20092;-58
2021/01/20 02:58:30;;;;;;;4.87;3.47;;;;;;;3.40;64.98;99461.59;10535242;27;24841;-57
2021/01/20 03:03:33;;;;;;;3.90;3.50;;;;;;;3.39;65.05;99436.22;10536573;27;20596;-57
2021/01/20 03:08:36;;;;;;;3.92;2.35;;;;;;;3.40;64.71;99432.66;10529082;27;20117;-57
2021/01/20 03:13:39;;;;;;;4.38;3.13;;;;;;;3.41;65.56;99430.84;10537902;27;20108;-57
2021/01/20 03:18:41;;;;;;;4.05;3.20;;;;;;;3.26;65.78;99427.41;10534865;27;20044;-57
2021/01/20 03:23:42;;;;;;;4.28;3.40;;;;;;;3.15;66.12;99428.97;10539468;27;20112;-57
2021/01/20 03:28:43;;;;;;;4.43;3.10;;;;;;;3.23;66.08;99433.72;10533969;27;20097;-56
2021/01/20 03:33:44;;;;;;;4.03;2.88;;;;;;;3.23;66.01;99424.97;10535425;27;20047;-57
2021/01/20 03:38:46;;;;;;;2.97;2.65;;;;;;;3.22;66.01;99413.63;10540383;27;20050;-57
2021/01/20 03:43:47;;;;;;;3.70;2.90;;;;;;;3.27;66.12;99410.69;10538084;27;20048;-57
2021/01/20 03:48:49;;;;;;;3.55;2.70;;;;;;;3.33;65.50;99419.06;10542064;27;20631;-57
2021/01/20 03:53:50;;;;;;;3.25;2.65;;;;;;;3.40;65.34;99419.50;10540444;27;20096;-57
2021/01/20 03:58:51;;;;;;;3.50;2.47;;;;;;;3.37;65.77;99419.69;10536621;27;20147;-57
2021/01/20 04:03:52;;;;;;;3.60;2.60;;;;;;;3.40;65.87;99414.22;10531110;27;20071;-57
2021/01/20 04:08:54;;;;;;;4.40;2.50;;;;;;;3.44;65.59;99415.72;10527668;27;20316;-57
2021/01/20 04:13:55;;;;;;;3.45;2.85;;;;;;;3.52;65.14;99413.44;10535310;27;20052;-57
2021/01/20 04:18:56;;;;;;;3.35;2.55;;;;;;;3.51;65.04;99395.97;10532654;27;20173;-57
2021/01/20 04:23:57;;;;;;;3.75;2.63;;;;;;;3.49;65.28;99403.09;10528185;27;20130;-57
2021/01/20 04:28:59;;;;;;;3.65;2.92;;;;;;;3.44;65.41;99399.94;10528298;27;20462;-58
2021/01/20 04:34:00;;;;;;;3.70;2.50;;;;;;;3.42;65.42;99395.72;10539426;27;20466;-57
2021/01/20 04:39:02;;;;;;;3.40;2.70;;;;;;;3.45;65.91;99401.66;10527201;27;20039;-58
2021/01/20 04:44:04;;;;;;;4.07;2.90;;;;;;;3.41;65.45;99396.66;10529908;27;20503;-57
2021/01/20 04:49:06;;;;;;;3.05;2.45;;;;;;;3.38;65.66;99387.19;10548877;27;20168;-57
2021/01/20 04:54:10;;;;;;;3.33;2.67;;;;;;;3.34;65.64;99370.75;10520145;27;20089;-58
2021/01/20 04:59:12;;;;;;;3.35;2.30;;;;;;;3.08;65.99;99319.84;10527729;28;20729;-57
2021/01/20 05:04:15;;;;;;;3.78;2.47;;;;;;;3.48;65.21;99355.84;10541310;27;20073;-57
2021/01/20 05:09:16;;;;;;;3.85;2.50;;;;;;;3.48;65.17;99351.44;10532652;27;20112;-57
2021/01/20 05:14:18;;;;;;;3.90;2.47;;;;;;;3.48;65.12;99356.72;10530537;27;20067;-57
2021/01/20 05:19:36;;;;;;;3.35;2.03;;;;;;;3.57;64.70;99354.41;10523984;27;20043;-57
2021/01/20 05:24:38;;;;;;;3.60;2.33;;;;;;;3.65;64.58;99360.03;10534319;27;20059;-58
2021/01/20 05:29:58;;;;;;;4.00;2.17;;;;;;;3.73;64.32;99352.44;10521470;27;20052;-57
2021/01/20 05:35:05;;;;;;;3.10;2.47;;;;;;;3.78;63.42;99346.88;10538220;27;20055;-57
2021/01/20 05:40:09;;;;;;;3.90;2.60;;;;;;;3.84;63.41;99341.19;10534410;27;20060;-57
2021/01/20 05:45:12;;;;;;;3.55;2.38;;;;;;;3.92;63.75;99341.53;10525927;27;20043;-57
2021/01/20 05:50:14;;;;;;;3.03;2.45;;;;;;;3.98;63.39;99343.75;10533669;27;20196;-57
2021/01/20 05:55:16;;;;;;;3.97;2.88;;;;;;;3.98;62.95;99340.25;10527911;27;20048;-57
2021/01/20 06:00:18;;;;;;;2.92;2.42;;;;;;;4.00;63.03;99338.38;10527537;27;20051;-60
2021/01/20 06:05:20;;;;;;;3.65;2.80;;;;;;;4.06;62.99;99345.88;10520322;27;20058;-60
2021/01/20 06:10:22;;;;;;;3.00;2.70;;;;;;;4.06;62.87;99348.50;10518066;27;20142;-56
2021/01/20 06:15:23;;;;;;;4.20;2.33;;;;;;;4.10;62.87;99357.03;10518404;27;20500;-56
2021/01/20 06:20:25;;;;;;;4.00;2.50;;;;;;;4.15;62.79;99352.31;10522260;27;20119;-56
2021/01/20 06:25:32;;;;;;;3.13;2.30;;;;;;;4.19;63.21;99344.09;10528821;27;20187;-57
2021/01/20 06:30:37;;;;;;;4.35;2.30;;;;;;;4.23;63.05;99329.75;10525270;27;20032;-57
2021/01/20 06:35:42;;;;;;;;;;;;;;;4.29;62.83;99340.81;10527035;27;20051;-57
2021/01/20 06:40:43;;;;;;;5.28;2.65;;;;;;;4.27;62.33;99335.66;10521915;27;19927;-57
2021/01/20 06:46:11;;;;;;;2.85;2.22;;;;;;;4.36;62.52;99344.72;10521941;27;20203;-57
2021/01/20 06:51:12;;;;;;;4.78;2.88;;;;;;;4.35;62.23;99327.19;10523416;27;20048;-57
2021/01/20 06:56:38;;;;;;;2.45;2.22;;;;;;;4.41;62.17;99334.69;10521399;27;20109;-57
2021/01/20 07:01:40;;;;;;;3.22;2.08;;;;;;;4.34;62.22;99336.06;10517589;27;20039;-57
2021/01/20 07:06:41;;;;;;;2.58;2.30;;;;;;;4.42;62.06;99350.38;10514217;27;20748;-57
2021/01/20 07:12:03;;;;;;;4.63;2.90;;;;;;;4.47;62.35;99357.13;10526291;27;20078;-57
2021/01/20 07:17:06;;;;;;;2.38;1.73;;;;;;;4.46;62.16;99351.03;10515039;27;20205;-57
2021/01/20 07:22:08;;;;;;;4.00;2.80;;;;;;;4.42;62.07;99339.00;10525846;27;20126;-56
2021/01/20 07:27:11;;;;;;;3.83;2.20;;;;;;;4.49;61.90;99335.00;10520507;27;20040;-56
2021/01/20 07:32:12;;;;;;;2.50;2.28;;;;;;;4.50;62.29;99336.66;10520483;27;20499;-57
2021/01/20 07:37:16;;;;;;;3.45;2.38;;;;;;;4.55;61.82;99326.66;10517168;27;20060;-59
2021/01/20 07:42:18;;;;;;;3.72;2.60;;;;;;;4.58;61.66;99325.63;10530088;27;20700;-57
2021/01/20 07:47:19;;;;;;;3.67;2.15;;;;;;;4.65;61.74;99328.66;10524288;27;20056;-56
2021/01/20 07:52:21;;;;;;;3.80;2.25;;;;;;;4.68;62.03;99317.88;10529362;27;20614;-57
2021/01/20 07:57:22;;;;;;;4.28;3.13;;;;;;;4.73;61.44;99321.06;10530025;27;20044;-57
2021/01/20 08:02:23;;;;;;;4.00;2.28;;;;;;;4.78;60.94;99309.19;10535623;27;20050;-57
2021/01/20 08:07:25;;;;;;;3.28;2.40;;;;;;;4.92;60.88;99308.22;10533449;27;20047;-57
2021/01/20 08:12:29;;;;;;;4.35;2.50;;;;;;;4.96;60.77;99291.22;10546416;27;20051;-57
2021/01/20 08:17:30;;;;;;;4.65;2.15;;;;;;;5.03;61.00;99296.03;10536947;27;20048;-58
2021/01/20 08:22:33;;;;;;;5.00;2.38;;;;;;;5.08;59.88;99320.31;10533754;22;20052;-58
2021/01/20 08:27:37;;;;;;;3.28;2.13;;;;;;;5.16;60.44;99314.47;10531254;27;20075;-58
2021/01/20 08:32:58;;;;;;;3.50;1.97;;;;;;;5.27;60.00;99310.09;10510205;27;20035;-58
2021/01/20 08:38:00;;;;;;;4.38;2.65;;;;;;;5.34;58.96;99299.91;10508533;27;20047;-59
2021/01/20 08:43:01;;;;;;;3.28;2.20;;;;;;;5.37;59.26;99310.25;10520489;27;20052;-58
2021/01/20 08:48:28;;;;;;;5.15;2.53;;;;;;;5.45;59.04;99317.59;10515708;27;20404;-59
2021/01/20 08:53:29;;;;;;;4.97;2.75;;;;;;;5.55;58.97;99323.03;10510935;27;20130;-59
2021/01/20 08:58:34;;;;;;;5.07;2.20;;;;;;;5.61;58.32;99320.78;10514107;27;20097;-59
2021/01/20 09:03:38;;;;;;;3.28;2.20;;;;;;;5.71;58.12;99306.91;10511774;27;20036;-59
2021/01/20 09:08:40;;;;;;;4.15;2.08;;;;;;;5.84;58.33;99308.50;10513207;27;20165;-58
2021/01/20 09:13:41;;;;;;;2.45;2.00;;;;;;;5.96;57.39;99296.16;10517733;27;20417;-59
2021/01/20 09:18:42;;;;;;;3.53;2.90;;;;;;;5.97;57.48;99289.91;10511944;27;20049;-58
2021/01/20 09:23:44;;;;;;;3.40;3.00;;;;;;;5.94;57.69;99292.75;10505326;27;20040;-58
2021/01/20 09:28:45;;;;;;;4.47;2.97;;;;;;;5.97;57.46;99286.44;10512114;27;20131;-58
2021/01/20 09:33:46;;;;;;;4.82;2.88;;;;;;;6.10;58.16;99286.34;10513048;27;20048;-59
2021/01/20 09:38:48;;;;;;;5.97;2.70;;;;;;;6.10;56.81;99281.06;10504067;27;20172;-58
2021/01/20 09:43:51;;;;;;;6.97;3.15;;;;;;;6.21;58.12;99285.53;10509645;27;20144;-59
2021/01/20 09:48:52;;;;;;;6.32;2.45;;;;;;;6.34;57.92;99284.44;10512914;27;20422;-59
2021/01/20 09:53:54;;;;;;;5.00;2.72;;;;;;;6.42;57.61;99278.53;10502477;27;20036;-58
2021/01/20 09:58:55;;;;;;;4.20;2.58;;;;;;;6.51;56.81;99279.63;10510475;27;20246;-58
2021/01/20 10:03:56;;;;;;;3.03;2.42;;;;;;;6.59;55.91;99274.59;10504610;27;20055;-58
2021/01/20 10:08:58;;;;;;;5.60;3.03;;;;;;;6.73;56.40;99255.78;10512030;27;20144;-58
2021/01/20 10:13:59;;;;;;;5.30;2.83;;;;;;;7.03;54.80;99246.34;10513549;27;20131;-59
2021/01/20 10:19:00;;;;;;;4.15;2.92;;;;;;;7.30;53.91;99258.28;10511916;27;20052;-59
2021/01/20 10:24:02;;;;;;;4.78;3.38;;;;;;;7.59;53.28;99239.09;10520192;27;20465;-59
2021/01/20 10:29:04;;;;;;;5.82;3.17;;;;;;;7.95;52.13;99223.69;10510037;27;20085;-59
2021/01/20 10:34:07;;;;;;;4.80;3.40;;;;;;;8.18;51.85;99215.56;10512000;27;20802;-59
2021/01/20 10:39:09;;;;;;;4.25;2.60;;;;;;;8.14;51.59;99199.09;10506038;27;20067;-59
2021/01/20 10:44:11;;;;;;;6.30;3.13;;;;;;;7.99;52.60;99203.06;10509268;27;20253;-58
2021/01/20 10:49:12;;;;;;;3.40;2.78;;;;;;;8.03;52.50;99197.38;10508230;27;20052;-59
2021/01/20 10:54:13;;;;;;;3.78;3.03;;;;;;;8.27;53.15;99188.25;10509127;27;20504;-59
2021/01/20 10:59:14;;;;;;;6.10;3.53;;;;;;;8.48;52.46;99175.78;10515663;27;20146;-59
2021/01/20 11:04:17;;;;;;;5.70;3.05;;;;;;;8.82;50.91;99166.59;10510663;27;20044;-59
2021/01/20 11:09:18;;;;;;;4.43;3.03;;;;;;;8.80;51.10;99165.91;10511534;27;20126;-58
2021/01/20 11:14:22;;;;;;;24.73;17.10;;;;;;;9.35;50.71;99160.00;10511397;27;20048;-59
2021/01/20 11:19:24;;;;;;;3.53;3.03;;;;;;;10.68;47.83;99147.44;10511817;27;20884;-60
2021/01/20 11:24:28;;;;;;;5.68;3.08;;;;;;;12.01;43.79;99135.75;10519940;27;20078;-59
2021/01/20 11:29:29;;;;;;;5.38;3.45;;;;;;;12.42;42.53;99118.22;10514451;27;20051;-59
2021/01/20 11:34:31;;;;;;;6.65;2.63;;;;;;;12.20;42.83;99113.31;10523467;27;20052;-59
2021/01/20 11:39:35;;;;;;;3.88;2.33;;;;;;;11.71;44.14;99097.09;10519606;27;20052;-59
2021/01/20 11:44:36;;;;;;;;;;;;;;;11.10;45.28;99098.88;10518674;27;20128;-59
2021/01/20 11:49:37;;;;;;;3.78;2.40;;;;;;;10.61;46.85;99109.94;10524831;27;19919;-59
2021/01/20 11:54:38;;;;;;;3.63;2.50;;;;;;;10.83;45.82;99092.66;10528858;27;20189;-59
2021/01/20 11:59:40;;;;;;;3.50;2.28;;;;;;;11.22;45.54;99068.31;10509479;27;20101;-59
2021/01/20 12:04:42;;;;;;;4.80;2.75;;;;;;;11.67;44.82;99051.25;10515888;27;20194;-59
2021/01/20 12:09:43;;;;;;;3.90;2.92;;;;;;;11.33;45.53;99045.91;10516226;27;20052;-59
2021/01/20 12:14:45;;;;;;;5.07;2.60;;;;;;;13.10;41.69;99028.94;10522452;27;20116;-60
2021/01/20 12:19:46;;;;;;;2.65;1.80;;;;;;;12.38;43.70;99011.81;10512146;27;20056;-59
2021/01/20 12:24:47;;;;;;;4.22;2.10;;;;;;;11.38;45.36;99016.13;10527961;27;20111;-59
2021/01/20 12:29:51;;;;;;;3.80;1.87;;;;;;;10.37;46.65;99012.09;10517963;27;20135;-59
2021/01/20 12:34:52;;;;;;;4.03;1.90;;;;;;;10.67;46.97;99012.69;10517763;27;20126;-59
2021/01/20 12:39:54;;;;;;;3.08;1.75;;;;;;;11.27;46.43;98996.78;10526861;27;20051;-58
2021/01/20 12:44:55;;;;;;;4.22;2.03;;;;;;;11.19;47.01;98985.25;10516649;27;20071;-60
2021/01/20 12:49:56;;;;;;;5.05;2.08;;;;;;;10.80;47.37;98981.16;10515378;27;20105;-58
2021/01/20 12:54:57;;;;;;;2.47;1.98;;;;;;;10.96;46.85;98981.28;10511989;27;20052;-58
2021/01/20 12:59:59;;;;;;;3.65;2.45;;;;;;;13.35;41.62;98970.13;10518804;27;20076;-59
2021/01/20 13:05:00;;;;;;;4.72;3.25;;;;;;;16.05;36.95;98949.94;10514717;27;20055;-59
2021/01/20 13:10:01;;;;;;;2.47;1.67;;;;;;;15.11;37.63;98945.25;10525945;27;20531;-59
2021/01/20 13:15:04;;;;;;;4.63;1.73;;;;;;;15.88;36.99;98933.25;10514401;27;20573;-59
2021/01/20 13:20:05;;;;;;;3.05;1.77;;;;;;;14.73;37.62;98928.44;10522348;27;20643;-60
2021/01/20 13:25:07;;;;;;;3.88;1.45;;;;;;;13.44;40.24;98924.47;10519442;27;20061;-64
2021/01/20 13:30:09;;;;;;;3.95;2.17;;;;;;;12.09;43.23;98918.06;10520403;27;20098;-59
2021/01/20 13:35:10;;;;;;;3.67;1.80;;;;;;;11.46;45.10;98912.25;10515197;27;20125;-59
2021/01/20 13:40:12;;;;;;;6.97;1.67;;;;;;;11.06;46.07;98911.91;10519331;27;20475;-59
2021/01/20 13:45:14;;;;;;;3.67;1.60;;;;;;;10.79;47.38;98911.16;10515075;27;20071;-58
2021/01/20 13:50:15;;;;;;;2.33;1.30;;;;;;;10.78;47.44;98898.00;10513846;27;20121;-59
2021/01/20 13:55:35;;;;;;;4.07;1.70;;;;;;;10.64;47.63;98886.09;10507672;27;20041;-59
2021/01/20 14:00:36;;;;;;;3.58;1.55;;;;;;;10.52;48.06;98888.16;10516056;27;20135;-59
2021/01/20 14:05:37;;;;;;;3.08;1.55;;;;;;;10.37;48.35;98887.06;10515763;27;20074;-59
2021/01/20 14:10:38;;;;;;;3.42;1.98;;;;;;;10.41;48.07;98881.28;10513423;27;20159;-59
2021/01/20 14:15:40;;;;;;;3.78;2.05;;;;;;;10.34;48.28;98884.72;10519532;27;20565;-58
2021/01/20 14:20:41;;;;;;;3.35;1.38;;;;;;;10.26;48.28;98888.97;10503239;27;20098;-59
2021/01/20 14:25:42;;;;;;;4.03;2.17;;;;;;;10.27;49.24;98887.97;10515512;27;20047;-59
2021/01/20 14:30:43;;;;;;;1.92;1.60;;;;;;;10.21;48.53;98883.28;10505456;27;20048;-59
2021/01/20 14:35:44;;;;;;;3.17;1.35;;;;;;;10.15;48.97;98881.25;10509355;27;20109;-59
2021/01/20 14:40:46;;;;;;;4.57;2.25;;;;;;;10.16;49.48;98877.56;10511919;27;20098;-59
2021/01/20 14:45:48;;;;;;;4.10;1.83;;;;;;;10.14;49.11;98871.59;10504181;27;20116;-59
2021/01/20 14:50:49;;;;;;;4.97;1.80;;;;;;;10.15;49.22;98865.28;10513111;27;20768;-64
2021/01/20 14:55:50;;;;;;;4.30;2.00;;;;;;;10.07;49.91;98862.56;10513612;27;20055;-59
2021/01/20 15:00:51;;;;;;;5.60;1.90;;;;;;;10.06;49.98;98864.38;10509381;27;20048;-58
2021/01/20 15:05:52;;;;;;;3.25;1.88;;;;;;;10.02;50.39;98859.53;10510309;27;20159;-61
2021/01/20 15:10:54;;;;;;;3.92;1.90;;;;;;;10.06;49.69;98858.25;10527125;27;20484;-60
2021/01/20 15:15:55;;;;;;;3.10;1.60;;;;;;;10.06;50.33;98852.94;10522842;27;20051;-59
2021/01/20 15:20:57;;;;;;;3.65;1.60;;;;;;;10.01;50.60;98848.06;10529809;27;20047;-59
2021/01/20 15:26:01;;;;;;;3.70;1.85;;;;;;;9.97;50.54;98846.72;10526653;27;20055;-59
2021/01/20 15:31:02;;;;;;;4.05;2.17;;;;;;;9.87;50.72;98857.41;10519252;27;20047;-60
2021/01/20 15:36:04;;;;;;;5.15;2.33;;;;;;;9.81;50.33;98860.69;10524902;27;20138;-59
2021/01/20 15:41:05;;;;;;;2.70;1.80;;;;;;;9.76;51.24;98854.16;10518539;27;20059;-59
2021/01/20 15:46:06;;;;;;;4.47;1.65;;;;;;;9.65;51.12;98844.59;10517060;27;20067;-59
2021/01/20 15:51:08;;;;;;;4.05;2.53;;;;;;;9.67;51.69;98839.97;10525726;27;20442;-59
2021/01/20 15:56:09;;;;;;;9.55;4.38;;;;;;;9.68;52.04;98837.16;10522191;27;20052;-59
2021/01/20 16:01:11;;;;;;;9.88;9.07;;;;;;;9.57;51.72;98834.72;10520759;27;20120;-59
2021/01/20 16:06:13;;;;;;;6.05;5.45;;;;;;;9.55;52.20;98834.88;10517233;27;20780;-59
2021/01/20 16:11:14;;;;;;;5.90;3.78;;;;;;;9.48;52.49;98838.31;10521546;27;20109;-59
2021/01/20 16:16:15;;;;;;;7.40;5.53;;;;;;;9.50;52.66;98834.50;10518024;27;20409;-59
2021/01/20 16:21:17;;;;;;;16.20;14.52;;;;;;;9.45;51.90;98828.81;10527646;27;20447;-59
2021/01/20 16:26:18;;;;;;;6.97;5.57;;;;;;;9.42;51.61;98829.09;10518881;27;20123;-58
2021/01/20 16:31:20;;;;;;;19.42;17.50;;;;;;;9.35;51.56;98822.72;10515122;27;20071;-58
2021/01/20 16:36:21;;;;;;;28.83;25.67;;;;;;;9.35;51.52;98825.38;10512663;27;20496;-60
2021/01/20 16:41:22;;;;;;;5.43;3.10;;;;;;;9.32;51.52;98823.03;10521704;27;20063;-67
2021/01/20 16:46:23;;;;;;;13.25;9.80;;;;;;;9.26;51.56;98818.31;10511431;27;20083;-61
2021/01/20 16:51:26;;;;;;;6.53;3.63;;;;;;;9.25;51.31;98819.28;10521333;27;20684;-60
2021/01/20 16:56:27;;;;;;;13.40;7.68;;;;;;;9.19;51.08;98816.28;10517298;27;20055;-60
2021/01/20 17:01:29;;;;;;;11.13;6.20;;;;;;;9.27;51.11;98804.06;10518501;27;20131;-60
2021/01/20 17:06:30;;;;;;;5.72;3.38;;;;;;;9.30;51.22;98803.75;10510894;27;20048;-60
2021/01/20 17:11:31;;;;;;;5.78;3.10;;;;;;;9.29;51.51;98796.78;10523251;27;20117;-60
2021/01/20 17:16:33;;;;;;;4.22;1.95;;;;;;;9.23;51.67;98784.94;10523312;27;20047;-60
2021/01/20 17:21:34;;;;;;;7.47;3.13;;;;;;;9.14;53.02;98794.66;10509829;27;20439;-60
2021/01/20 17:26:36;;;;;;;5.97;4.20;;;;;;;8.98;53.68;98782.03;10518836;27;20829;-60
2021/01/20 17:31:37;;;;;;;7.32;3.60;;;;;;;8.88;53.68;98775.94;10519319;27;20132;-60
2021/01/20 17:36:38;;;;;;;4.80;2.78;;;;;;;8.84;55.10;98786.03;10489909;27;20174;-57
2021/01/20 17:41:40;;;;;;;6.75;2.80;;;;;;;8.89;54.67;98777.63;10503166;27;20614;-57
2021/01/20 17:46:41;;;;;;;4.63;2.97;;;;;;;8.90;53.91;98775.81;10503336;27;20051;-59
2021/01/20 17:51:42;;;;;;;4.43;2.53;;;;;;;8.85;53.95;98765.63;10504325;27;20611;-60
2021/01/20 17:56:44;;;;;;;5.45;2.58;;;;;;;8.76;54.12;98767.34;10504868;27;20673;-59
2021/01/20 18:01:45;;;;;;;5.20;2.33;;;;;;;8.69;54.34;98749.53;10504117;27;20390;-59
2021/01/20 18:06:46;;;;;;;3.53;2.45;;;;;;;8.58;54.30;98747.91;10502818;27;20102;-58
2021/01/20 18:11:48;;;;;;;3.88;2.28;;;;;;;8.54;54.13;98751.84;10510865;27;21586;-59
2021/01/20 18:16:51;;;;;;;4.07;3.28;;;;;;;8.48;54.52;98754.09;10503884;27;20151;-59
2021/01/20 18:21:53;;;;;;;8.18;4.38;;;;;;;8.41;54.67;98747.69;10505307;27;20098;-59
2021/01/20 18:26:54;;;;;;;4.75;2.63;;;;;;;8.43;54.50;98750.19;10508473;27;20097;-58
2021/01/20 18:31:55;;;;;;;6.47;4.78;;;;;;;8.39;55.03;98749.66;10503724;27;20059;-58
2021/01/20 18:36:57;;;;;;;5.68;3.05;;;;;;;8.35;55.26;98748.28;10506121;27;20433;-58
2021/01/20 18:41:58;;;;;;;5.80;3.35;;;;;;;8.30;55.05;98750.50;10507125;27;20051;-58
2021/01/20 18:47:00;;;;;;;22.60;17.25;;;;;;;8.16;55.27;98740.41;10507466;27;20051;-64
2021/01/20 18:52:03;;;;;;;7.00;4.57;;;;;;;8.23;55.96;98744.16;10501500;27;20051;-58
2021/01/20 18:57:05;;;;;;;23.58;18.45;;;;;;;8.24;55.72;98740.50;10498041;27;20040;-58
2021/01/20 19:02:06;;;;;;;47.25;42.75;;;;;;;8.18;56.07;98738.41;10498182;27;20059;-58
2021/01/20 19:07:08;;;;;;;45.10;30.98;;;;;;;8.22;55.78;98737.97;10500128;27;20070;-59
2021/01/20 19:12:09;;;;;;;121.13;75.00;;;;;;;8.19;55.69;98740.09;10498119;27;20072;-59
2021/01/20 19:17:13;;;;;;;181.53;118.60;;;;;;;8.20;55.57;98736.47;10498953;27;20054;-59
2021/01/20 19:22:15;;;;;;;98.95;65.75;;;;;;;8.23;55.50;98737.00;10501261;27;20052;-61
2021/01/20 19:27:16;;;;;;;92.65;62.63;;;;;;;8.24;55.84;98724.59;10499261;27;20458;-60
2021/01/20 19:32:18;;;;;;;22.63;16.10;;;;;;;8.19;55.60;98709.13;10494528;27;20075;-59
2021/01/20 19:37:20;;;;;;;186.90;110.20;;;;;;;8.16;55.70;98705.94;10498734;27;20131;-59
2021/01/20 19:42:21;;;;;;;284.92;170.70;;;;;;;8.10;56.05;98702.88;10507196;27;20059;-59
2021/01/20 19:47:22;;;;;;;22.90;19.52;;;;;;;8.08;56.54;98704.03;10510024;27;20044;-61
2021/01/20 19:52:24;;;;;;;6.47;5.78;;;;;;;8.03;56.36;98701.81;10511263;27;20052;-59
2021/01/20 19:57:25;;;;;;;7.78;5.85;;;;;;;8.03;56.92;98701.81;10507073;27;20044;-58
2021/01/20 20:02:26;;;;;;;6.32;4.53;;;;;;;7.91;56.84;98692.34;10507102;27;20118;-59
2021/01/20 20:07:28;;;;;;;5.25;3.72;;;;;;;7.86;56.96;98691.97;10501041;27;20052;-61
2021/01/20 20:12:29;;;;;;;4.90;3.00;;;;;;;7.86;57.61;98686.66;10510326;27;20056;-59
2021/01/20 20:17:31;;;;;;;19.13;17.75;;;;;;;7.76;57.11;98674.28;10508017;27;20126;-59
2021/01/20 20:22:32;;;;;;;9.02;8.23;;;;;;;7.82;57.14;98678.19;10511936;27;20051;-60
2021/01/20 20:27:33;;;;;;;22.88;21.10;;;;;;;7.82;57.31;98672.03;10512689;27;20125;-59
2021/01/20 20:32:35;;;;;;;6.57;5.85;;;;;;;7.81;57.17;98675.66;10506891;27;20060;-59
2021/01/20 20:37:36;;;;;;;5.00;3.63;;;;;;;7.78;56.68;98667.03;10498191;27;20075;-61
2021/01/20 20:42:38;;;;;;;8.05;3.58;;;;;;;7.80;56.85;98669.53;10513518;27;20140;-58
2021/01/20 20:47:41;;;;;;;6.78;3.92;;;;;;;7.78;57.11;98664.38;10515298;27;20052;-59
2021/01/20 20:52:42;;;;;;;6.03;3.85;;;;;;;7.74;56.98;98659.50;10492326;27;20052;-58
2021/01/20 20:57:44;;;;;;;4.72;3.22;;;;;;;7.62;57.56;98637.66;10494270;22;20044;-64
2021/01/20 21:02:45;;;;;;;5.35;3.63;;;;;;;7.64;57.68;98651.59;10511041;27;20048;-64
2021/01/20 21:07:47;;;;;;;5.32;3.50;;;;;;;7.60;57.32;98647.56;10506552;27;20154;-65
2021/01/20 21:12:48;;;;;;;5.43;3.47;;;;;;;7.61;57.52;98651.88;10481675;27;20048;-67
2021/01/20 21:17:50;;;;;;;7.18;2.92;;;;;;;7.54;57.13;98637.56;10471918;28;20048;-66
2021/01/20 21:22:51;;;;;;;4.78;3.03;;;;;;;7.59;57.78;98648.53;10476038;27;20052;-66
2021/01/20 21:27:52;;;;;;;4.13;3.15;;;;;;;7.55;57.68;98633.91;10472822;28;20048;-64
2021/01/20 21:32:54;;;;;;;4.88;3.10;;;;;;;7.58;57.24;98637.13;10478497;27;20052;-65
2021/01/20 21:37:55;;;;;;;4.50;3.50;;;;;;;7.57;57.39;98622.19;10498480;27;20052;-68
2021/01/20 21:42:56;;;;;;;4.95;3.53;;;;;;;7.56;57.83;98615.22;10495756;27;20067;-67
2021/01/20 21:47:58;;;;;;;4.38;3.30;;;;;;;7.66;57.49;98628.44;10501195;27;20055;-67
2021/01/20 21:52:59;;;;;;;6.80;4.28;;;;;;;7.67;57.93;98630.13;10498370;27;20051;-66
2021/01/20 21:58:02;;;;;;;6.63;4.45;;;;;;;7.63;57.74;98615.50;10490280;27;20051;-67
2021/01/20 22:03:03;;;;;;;5.55;3.88;;;;;;;7.67;57.77;98606.28;10497567;27;20060;-66
2021/01/20 22:08:05;;;;;;;5.53;3.42;;;;;;;7.63;56.80;98607.56;10493996;27;20048;-68
2021/01/20 22:13:06;;;;;;;5.60;2.85;;;;;;;7.60;57.06;98611.31;10491675;27;20088;-66
2021/01/20 22:18:07;;;;;;;5.05;3.78;;;;;;;7.51;57.45;98596.31;10492250;27;20094;-66
2021/01/20 22:23:09;;;;;;;5.80;3.40;;;;;;;7.60;57.30;98613.16;10493964;28;20044;-67
2021/01/20 22:28:10;;;;;;;9.50;4.28;;;;;;;7.54;57.55;98592.53;10496989;28;20102;-66
2021/01/20 22:33:12;;;;;;;3.55;3.03;;;;;;;7.61;57.51;98606.84;10501048;27;20052;-66
2021/01/20 22:38:13;;;;;;;4.40;3.63;;;;;;;7.42;57.33;98560.13;10488010;28;20090;-66
2021/01/20 22:43:14;;;;;;;4.38;3.25;;;;;;;7.58;57.01;98578.88;10487062;28;20148;-66
2021/01/20 22:48:15;;;;;;;5.30;3.10;;;;;;;7.54;56.55;98558.13;10502597;27;20105;-66
2021/01/20 22:53:16;;;;;;;4.00;3.05;;;;;;;7.55;56.65;98554.47;10500958;27;20071;-66
2021/01/20 22:58:17;;;;;;;5.75;2.83;;;;;;;7.47;56.42;98533.19;10493742;28;20056;-66
2021/01/20 23:03:19;;;;;;;2.92;2.40;;;;;;;7.37;56.24;98515.53;10498217;28;20105;-65
2021/01/20 23:08:20;;;;;;;3.10;2.50;;;;;;;7.46;56.16;98534.16;10505597;28;20069;-66
2021/01/20 23:13:21;;;;;;;4.35;2.38;;;;;;;7.48;56.18;98534.88;10523048;27;20056;-65
2021/01/20 23:18:22;;;;;;;4.15;2.78;;;;;;;7.44;56.39;98513.97;10501877;27;20386;-66
2021/01/20 23:23:24;;;;;;;4.10;2.67;;;;;;;7.41;56.58;98522.19;10504758;28;20052;-65
2021/01/20 23:28:26;;;;;;;4.40;2.83;;;;;;;7.39;56.58;98521.53;10508467;28;20119;-66
2021/01/20 23:33:27;;;;;;;5.43;4.03;;;;;;;7.39;57.09;98515.41;10519654;27;20102;-65
2021/01/20 23:38:28;;;;;;;5.22;3.00;;;;;;;7.40;56.82;98504.66;10515518;27;20097;-66